sensor_id;sensor_type;location;lat;lon;timestamp;P1;durP1;ratioP1;P2;durP2;ratioP2
6751;SDS011;3413;47.680;9.166;2022-12-17T06:55:17;19.37;;;6.60;;
6751;SDS011;3413;47.680;9.166;2022-12-17T08:02:34;18.57;;;7.30;;
6751;SDS011;3413;47.680;9.166;2022-12-17T08:08:47;19.63;;;6.60;;
6751;SDS011;3413;47.680;9.166;2022-12-17T08:14:48;15.60;;;6.37;;
6751;SDS011;3413;47.680;9.166;2022-12-17T08:20:59;14.97;;;6.10;;
6751;SDS011;3413;47.680;9.166;2022-12-17T08:27:04;11.03;;;5.90;;
6751;SDS011;3413;47.680;9.166;2022-12-17T08:34:00;14.43;;;5.87;;
6751;SDS011;3413;47.680;9.166;2022-12-17T08:39:21;13.53;;;5.70;;
6751;SDS011;3413;47.680;9.166;2022-12-17T08:45:03;13.03;;;6.03;;
6751;SDS011;3413;47.680;9.166;2022-12-17T09:39:53;13.17;;;6.20;;
6751;SDS011;3413;47.680;9.166;2022-12-17T09:45:22;14.80;;;7.13;;
6751;SDS011;3413;47.680;9.166;2022-12-17T10:56:04;18.03;;;7.33;;
6751;SDS011;3413;47.680;9.166;2022-12-17T11:21:44;15.10;;;7.20;;
6751;SDS011;3413;47.680;9.166;2022-12-17T11:38:31;14.27;;;6.80;;
6751;SDS011;3413;47.680;9.166;2022-12-17T11:51:11;16.93;;;7.43;;
6751;SDS011;3413;47.680;9.166;2022-12-17T12:08:08;17.70;;;7.73;;
6751;SDS011;3413;47.680;9.166;2022-12-17T12:13:39;15.73;;;6.20;;
6751;SDS011;3413;47.680;9.166;2022-12-17T12:25:15;15.13;;;7.10;;
6751;SDS011;3413;47.680;9.166;2022-12-17T12:36:32;15.20;;;6.67;;
6751;SDS011;3413;47.680;9.166;2022-12-17T12:42:01;15.93;;;6.67;;
6751;SDS011;3413;47.680;9.166;2022-12-17T12:47:45;20.03;;;6.93;;
6751;SDS011;3413;47.680;9.166;2022-12-17T12:53:28;15.80;;;6.20;;
6751;SDS011;3413;47.680;9.166;2022-12-17T12:58:52;13.23;;;6.60;;
6751;SDS011;3413;47.680;9.166;2022-12-17T13:04:33;19.37;;;5.90;;
6751;SDS011;3413;47.680;9.166;2022-12-17T13:09:56;12.00;;;5.00;;
6751;SDS011;3413;47.680;9.166;2022-12-17T13:15:19;10.63;;;5.33;;
6751;SDS011;3413;47.680;9.166;2022-12-17T13:29:23;12.07;;;5.27;;
6751;SDS011;3413;47.680;9.166;2022-12-17T13:46:24;15.10;;;6.03;;
6751;SDS011;3413;47.680;9.166;2022-12-17T14:37:31;17.03;;;4.70;;
6751;SDS011;3413;47.680;9.166;2022-12-17T14:43:33;10.87;;;4.30;;
6751;SDS011;3413;47.680;9.166;2022-12-17T14:49:11;17.20;;;5.60;;
6751;SDS011;3413;47.680;9.166;2022-12-17T15:01:38;20.83;;;8.40;;
6751;SDS011;3413;47.680;9.166;2022-12-17T15:06:46;16.80;;;7.87;;
6751;SDS011;3413;47.680;9.166;2022-12-17T15:12:31;15.47;;;6.50;;
6751;SDS011;3413;47.680;9.166;2022-12-17T15:17:48;15.30;;;6.43;;
6751;SDS011;3413;47.680;9.166;2022-12-17T15:23:40;13.33;;;4.73;;
6751;SDS011;3413;47.680;9.166;2022-12-17T15:28:58;17.53;;;7.40;;
6751;SDS011;3413;47.680;9.166;2022-12-17T15:34:02;12.77;;;6.80;;
6751;SDS011;3413;47.680;9.166;2022-12-17T15:39:24;14.27;;;6.40;;
6751;SDS011;3413;47.680;9.166;2022-12-17T15:44:52;17.17;;;7.43;;
6751;SDS011;3413;47.680;9.166;2022-12-17T15:50:22;15.70;;;7.13;;
6751;SDS011;3413;47.680;9.166;2022-12-17T15:56:03;28.63;;;11.57;;
6751;SDS011;3413;47.680;9.166;2022-12-17T16:02:20;15.17;;;6.43;;
6751;SDS011;3413;47.680;9.166;2022-12-17T16:08:43;14.80;;;7.30;;
6751;SDS011;3413;47.680;9.166;2022-12-17T16:14:31;19.90;;;7.23;;
6751;SDS011;3413;47.680;9.166;2022-12-17T16:19:38;23.03;;;8.27;;
6751;SDS011;3413;47.680;9.166;2022-12-17T16:24:46;20.37;;;9.20;;
6751;SDS011;3413;47.680;9.166;2022-12-17T16:29:57;17.27;;;8.27;;
6751;SDS011;3413;47.680;9.166;2022-12-17T16:35:01;22.27;;;8.70;;
6751;SDS011;3413;47.680;9.166;2022-12-17T16:40:08;20.63;;;9.60;;
6751;SDS011;3413;47.680;9.166;2022-12-17T16:45:16;17.43;;;8.20;;
6751;SDS011;3413;47.680;9.166;2022-12-17T16:50:26;26.57;;;9.13;;
6751;SDS011;3413;47.680;9.166;2022-12-17T16:55:41;20.63;;;9.87;;
6751;SDS011;3413;47.680;9.166;2022-12-17T17:00:52;22.73;;;10.30;;
6751;SDS011;3413;47.680;9.166;2022-12-17T17:05:59;28.17;;;12.80;;
6751;SDS011;3413;47.680;9.166;2022-12-17T17:11:08;23.80;;;11.17;;
6751;SDS011;3413;47.680;9.166;2022-12-17T17:16:19;44.73;;;19.83;;
6751;SDS011;3413;47.680;9.166;2022-12-17T17:21:54;83.10;;;27.00;;
6751;SDS011;3413;47.680;9.166;2022-12-17T17:27:02;101.67;;;34.53;;
6751;SDS011;3413;47.680;9.166;2022-12-17T17:32:42;33.40;;;15.37;;
6751;SDS011;3413;47.680;9.166;2022-12-17T17:37:48;25.93;;;11.77;;
6751;SDS011;3413;47.680;9.166;2022-12-17T17:42:51;29.90;;;12.73;;
6751;SDS011;3413;47.680;9.166;2022-12-17T17:47:58;24.60;;;11.70;;
6751;SDS011;3413;47.680;9.166;2022-12-17T18:04:41;28.77;;;12.27;;
6751;SDS011;3413;47.680;9.166;2022-12-17T18:10:45;26.87;;;12.57;;
6751;SDS011;3413;47.680;9.166;2022-12-17T18:17:47;27.83;;;12.33;;
6751;SDS011;3413;47.680;9.166;2022-12-17T18:24:40;28.33;;;14.00;;
6751;SDS011;3413;47.680;9.166;2022-12-17T18:38:24;190.17;;;46.63;;
6751;SDS011;3413;47.680;9.166;2022-12-17T19:04:46;276.70;;;60.17;;
6751;SDS011;3413;47.680;9.166;2022-12-17T19:35:49;34.60;;;14.37;;
6751;SDS011;3413;47.680;9.166;2022-12-17T20:07:27;40.73;;;14.50;;
6751;SDS011;3413;47.680;9.166;2022-12-17T21:12:05;51.10;;;14.87;;
6751;SDS011;3413;47.680;9.166;2022-12-17T21:18:24;34.20;;;13.87;;
6751;SDS011;3413;47.680;9.166;2022-12-17T21:24:58;34.67;;;14.80;;
6751;SDS011;3413;47.680;9.166;2022-12-17T21:48:42;49.33;;;16.77;;
6751;SDS011;3413;47.680;9.166;2022-12-17T21:55:36;49.47;;;16.80;;
6751;SDS011;3413;47.680;9.166;2022-12-17T22:00:46;39.43;;;14.57;;
6751;SDS011;3413;47.680;9.166;2022-12-17T22:07:51;48.83;;;17.00;;
6751;SDS011;3413;47.680;9.166;2022-12-17T22:13:56;46.87;;;15.97;;
6751;SDS011;3413;47.680;9.166;2022-12-17T22:20:57;38.90;;;15.57;;
6751;SDS011;3413;47.680;9.166;2022-12-17T22:34:15;46.83;;;17.63;;
6751;SDS011;3413;47.680;9.166;2022-12-17T22:54:11;57.60;;;17.47;;
6751;SDS011;3413;47.680;9.166;2022-12-17T22:59:41;47.00;;;15.30;;
6751;SDS011;3413;47.680;9.166;2022-12-17T23:37:31;46.87;;;15.70;;
